Time,TemperatureF,DewpointF,PressureIn,WindDirection,WindDirectionDegrees,WindSpeedMPH,WindSpeedGustMPH,Humidity,HourlyPrecipIn,Conditions,Clouds,dailyrainin,SolarRadiationWatts/m^2,SoftwareType,DateUTC
2013-02-20 00:01:00,24.0,20.0,-100.00,West,276,8.0,17.0,84,0.00,,,0.00,0.000000,,2013-02-20 05:01:00,
2013-02-20 00:22:00,24.0,20.0,-100.00,West,276,8.0,17.0,84,0.00,,,0.00,0.000000,,2013-02-20 05:22:00,
2013-02-20 00:32:00,24.0,20.0,-100.00,West,276,8.0,17.0,84,0.00,,,0.00,0.000000,,2013-02-20 05:32:00,
2013-02-20 00:43:00,24.0,20.0,-100.00,West,276,8.0,17.0,84,0.00,,,0.00,0.000000,,2013-02-20 05:43:00,
2013-02-20 00:52:00,24.0,20.0,-100.00,West,276,8.0,17.0,84,0.00,,,0.00,0.000000,,2013-02-20 05:52:00,
2013-02-20 01:01:00,23.0,18.0,-100.00,West,271,9.0,19.0,82,0.00,,,0.00,0.000000,,2013-02-20 06:01:00,
2013-02-20 01:32:00,23.0,18.0,-100.00,West,271,9.0,19.0,82,0.00,,,0.00,0.000000,,2013-02-20 06:32:00,
2013-02-20 01:42:00,23.0,18.0,-100.00,West,271,9.0,19.0,82,0.00,,,0.00,0.000000,,2013-02-20 06:42:00,
2013-02-20 01:52:00,23.0,18.0,-100.00,West,271,9.0,19.0,82,0.00,,,0.00,0.000000,,2013-02-20 06:52:00,
2013-02-20 02:01:00,22.0,17.0,-100.00,West,270,7.0,20.0,81,0.00,,,0.00,0.000000,,2013-02-20 07:01:00,
2013-02-20 02:32:00,22.0,17.0,-100.00,West,270,7.0,20.0,81,0.00,,,0.00,0.000000,,2013-02-20 07:32:00,
2013-02-20 02:42:00,22.0,17.0,-100.00,West,270,7.0,20.0,81,0.00,,,0.00,0.000000,,2013-02-20 07:42:00,
2013-02-20 02:52:00,22.0,17.0,-100.00,West,270,7.0,20.0,81,0.00,,,0.00,0.000000,,2013-02-20 07:52:00,
2013-02-20 03:01:00,22.0,16.0,-100.00,West,262,6.0,16.0,78,0.00,,,0.00,0.000000,,2013-02-20 08:01:00,
2013-02-20 03:22:00,22.0,16.0,-100.00,West,262,6.0,16.0,78,0.00,,,0.00,0.000000,,2013-02-20 08:22:00,
2013-02-20 03:32:00,22.0,16.0,-100.00,West,262,6.0,16.0,78,0.00,,,0.00,0.000000,,2013-02-20 08:32:00,
2013-02-20 03:42:00,22.0,16.0,-100.00,West,262,6.0,16.0,78,0.00,,,0.00,0.000000,,2013-02-20 08:42:00,
2013-02-20 03:52:00,22.0,16.0,-100.00,West,262,6.0,16.0,78,0.00,,,0.00,0.000000,,2013-02-20 08:52:00,
2013-02-20 04:01:00,21.0,16.0,-100.00,West,271,9.0,17.0,79,0.00,,,0.00,0.000000,,2013-02-20 09:01:00,
2013-02-20 04:32:00,21.0,16.0,-100.00,West,271,9.0,17.0,79,0.00,,,0.00,0.000000,,2013-02-20 09:32:00,
2013-02-20 04:42:00,21.0,16.0,-100.00,West,271,9.0,17.0,79,0.00,,,0.00,0.000000,,2013-02-20 09:42:00,
2013-02-20 04:52:00,21.0,16.0,-100.00,West,271,9.0,17.0,79,0.00,,,0.00,0.000000,,2013-02-20 09:52:00,
2013-02-20 05:01:00,21.0,16.0,-100.00,West,273,6.0,16.0,79,0.00,,,0.00,0.000000,,2013-02-20 10:01:00,
2013-02-20 05:32:00,21.0,16.0,-100.00,West,273,6.0,16.0,79,0.00,,,0.00,0.000000,,2013-02-20 10:32:00,
2013-02-20 05:42:00,21.0,16.0,-100.00,West,273,6.0,16.0,79,0.00,,,0.00,0.000000,,2013-02-20 10:42:00,
2013-02-20 05:52:00,21.0,16.0,-100.00,West,273,6.0,16.0,79,0.00,,,0.00,0.000000,,2013-02-20 10:52:00,
2013-02-20 06:01:00,20.0,14.0,-100.00,West,275,11.0,20.0,77,0.00,,,0.00,0.000000,,2013-02-20 11:01:00,
2013-02-20 06:32:00,20.0,14.0,-100.00,West,275,11.0,20.0,77,0.00,,,0.00,0.000000,,2013-02-20 11:32:00,
2013-02-20 06:42:00,20.0,14.0,-100.00,West,275,11.0,20.0,77,0.00,,,0.00,0.000000,,2013-02-20 11:42:00,
2013-02-20 06:52:00,20.0,14.0,-100.00,West,275,11.0,20.0,77,0.00,,,0.00,0.000000,,2013-02-20 11:52:00,
2013-02-20 07:01:00,20.0,15.0,-100.00,WNW,284,7.0,20.0,82,0.00,,,0.00,1.000000,,2013-02-20 12:01:00,
2013-02-20 07:32:00,20.0,15.0,-100.00,WNW,284,7.0,20.0,82,0.00,,,0.00,1.000000,,2013-02-20 12:32:00,
2013-02-20 07:42:00,20.0,15.0,-100.00,WNW,284,7.0,20.0,82,0.00,,,0.00,1.000000,,2013-02-20 12:42:00,
2013-02-20 07:53:00,20.0,15.0,-100.00,WNW,284,7.0,20.0,82,0.00,,,0.00,1.000000,,2013-02-20 12:53:00,
2013-02-20 08:01:00,19.0,11.0,-100.00,West,268,9.0,24.0,69,0.00,,,0.00,44.000000,,2013-02-20 13:01:00,
2013-02-20 08:32:00,19.0,11.0,-100.00,West,268,9.0,24.0,69,0.00,,,0.00,44.000000,,2013-02-20 13:32:00,
2013-02-20 08:42:00,19.0,11.0,-100.00,West,268,9.0,24.0,69,0.00,,,0.00,44.000000,,2013-02-20 13:42:00,
2013-02-20 08:52:00,19.0,11.0,-100.00,West,268,9.0,24.0,69,0.00,,,0.00,44.000000,,2013-02-20 13:52:00,
2013-02-20 09:01:00,20.0,10.0,-100.00,West,264,9.0,22.0,64,0.00,,,0.00,167.000000,,2013-02-20 14:01:00,
2013-02-20 09:32:00,20.0,10.0,-100.00,West,264,9.0,22.0,64,0.00,,,0.00,167.000000,,2013-02-20 14:32:00,
2013-02-20 09:42:00,20.0,10.0,-100.00,West,264,9.0,22.0,64,0.00,,,0.00,167.000000,,2013-02-20 14:42:00,
2013-02-20 09:52:00,20.0,10.0,-100.00,West,264,9.0,22.0,64,0.00,,,0.00,167.000000,,2013-02-20 14:52:00,
2013-02-20 10:01:00,19.0,8.0,-100.00,West,267,11.0,24.0,61,0.00,,,0.00,192.000000,,2013-02-20 15:01:00,
2013-02-20 10:32:00,19.0,8.0,-100.00,West,267,11.0,24.0,61,0.00,,,0.00,192.000000,,2013-02-20 15:32:00,
2013-02-20 10:42:00,19.0,8.0,-100.00,West,267,11.0,24.0,61,0.00,,,0.00,192.000000,,2013-02-20 15:42:00,
2013-02-20 10:52:00,19.0,8.0,-100.00,West,267,11.0,24.0,61,0.00,,,0.00,192.000000,,2013-02-20 15:52:00,
2013-02-20 11:01:00,20.0,8.0,-100.00,WSW,257,7.0,23.0,58,0.00,,,-99.99,149.000000,,2013-02-20 16:01:00,
2013-02-20 11:32:00,20.0,8.0,-100.00,WSW,257,7.0,23.0,58,0.00,,,-99.99,149.000000,,2013-02-20 16:32:00,
2013-02-20 11:42:00,20.0,8.0,-100.00,WSW,257,7.0,23.0,58,0.00,,,-99.99,149.000000,,2013-02-20 16:42:00,
2013-02-20 11:52:00,20.0,8.0,-100.00,WSW,257,7.0,23.0,58,0.00,,,-99.99,149.000000,,2013-02-20 16:52:00,
2013-02-20 12:01:00,21.0,7.0,-100.00,West,276,13.0,23.0,55,0.00,,,0.00,327.000000,,2013-02-20 17:01:00,
2013-02-20 12:32:00,21.0,7.0,-100.00,West,276,13.0,23.0,55,0.00,,,0.00,327.000000,,2013-02-20 17:32:00,
2013-02-20 12:42:00,21.0,7.0,-100.00,West,276,13.0,23.0,55,0.00,,,0.00,327.000000,,2013-02-20 17:42:00,
2013-02-20 12:52:00,21.0,7.0,-100.00,West,276,13.0,23.0,55,0.00,,,0.00,327.000000,,2013-02-20 17:52:00,
2013-02-20 13:01:00,19.0,10.0,-100.00,West,277,9.0,21.0,66,0.00,,,0.00,211.000000,,2013-02-20 18:01:00,
2013-02-20 13:22:00,19.0,10.0,-100.00,West,277,9.0,21.0,66,0.00,,,0.00,211.000000,,2013-02-20 18:22:00,
2013-02-20 13:32:00,19.0,10.0,-100.00,West,277,9.0,21.0,66,0.00,,,0.00,211.000000,,2013-02-20 18:32:00,
2013-02-20 13:42:00,19.0,10.0,-100.00,West,277,9.0,21.0,66,0.00,,,0.00,211.000000,,2013-02-20 18:42:00,
2013-02-20 13:52:00,19.0,10.0,-100.00,West,277,9.0,21.0,66,0.00,,,0.00,211.000000,,2013-02-20 18:52:00,
2013-02-20 14:01:00,20.0,6.0,-100.00,West,271,9.0,20.0,54,0.00,,,0.00,159.000000,,2013-02-20 19:01:00,
2013-02-20 14:32:00,20.0,6.0,-100.00,West,271,9.0,20.0,54,0.00,,,0.00,159.000000,,2013-02-20 19:32:00,
2013-02-20 14:42:00,20.0,6.0,-100.00,West,271,9.0,20.0,54,0.00,,,0.00,159.000000,,2013-02-20 19:42:00,
2013-02-20 14:52:00,20.0,6.0,-100.00,West,271,9.0,20.0,54,0.00,,,0.00,159.000000,,2013-02-20 19:52:00,
2013-02-20 15:01:00,19.0,12.0,-100.00,West,277,7.0,20.0,73,0.00,,,0.00,152.000000,,2013-02-20 20:01:00,
2013-02-20 15:31:00,19.0,12.0,-100.00,West,277,7.0,20.0,73,0.00,,,0.00,152.000000,,2013-02-20 20:31:00,
2013-02-20 15:41:00,19.0,12.0,-100.00,West,277,7.0,20.0,73,0.00,,,0.00,152.000000,,2013-02-20 20:41:00,
2013-02-20 15:52:00,19.0,12.0,-100.00,West,277,7.0,20.0,73,0.00,,,0.00,152.000000,,2013-02-20 20:52:00,
2013-02-20 16:01:00,19.0,9.0,-100.00,West,268,10.0,20.0,64,0.00,,,0.00,129.000000,,2013-02-20 21:01:00,
2013-02-20 16:32:00,19.0,9.0,-100.00,West,268,10.0,20.0,64,0.00,,,0.00,129.000000,,2013-02-20 21:32:00,
2013-02-20 16:42:00,19.0,9.0,-100.00,West,268,10.0,20.0,64,0.00,,,0.00,129.000000,,2013-02-20 21:42:00,
2013-02-20 16:52:00,19.0,9.0,-100.00,West,268,10.0,20.0,64,0.00,,,0.00,129.000000,,2013-02-20 21:52:00,
2013-02-20 17:01:00,17.0,7.0,-100.00,West,265,9.0,22.0,65,0.00,,,0.00,69.000000,,2013-02-20 22:01:00,
2013-02-20 17:32:00,17.0,7.0,-100.00,West,265,9.0,22.0,65,0.00,,,0.00,69.000000,,2013-02-20 22:32:00,
2013-02-20 17:43:00,17.0,7.0,-100.00,West,265,9.0,22.0,65,0.00,,,0.00,69.000000,,2013-02-20 22:43:00,
2013-02-20 17:52:00,17.0,7.0,-100.00,West,265,9.0,22.0,65,0.00,,,0.00,69.000000,,2013-02-20 22:52:00,
2013-02-20 18:01:00,16.0,10.0,-100.00,West,269,8.0,19.0,77,0.00,,,0.00,7.000000,,2013-02-20 23:01:00,
2013-02-20 18:22:00,16.0,10.0,-100.00,West,269,8.0,19.0,77,0.00,,,0.00,7.000000,,2013-02-20 23:22:00,
2013-02-20 18:32:00,16.0,10.0,-100.00,West,269,8.0,19.0,77,0.00,,,0.00,7.000000,,2013-02-20 23:32:00,
2013-02-20 18:42:00,16.0,10.0,-100.00,West,269,8.0,19.0,77,0.00,,,0.00,7.000000,,2013-02-20 23:42:00,
2013-02-20 18:53:00,16.0,10.0,-100.00,West,269,8.0,19.0,77,0.00,,,0.00,7.000000,,2013-02-20 23:53:00,
2013-02-20 19:01:00,17.0,10.0,-100.00,West,274,7.0,17.0,73,0.00,,,0.00,0.000000,,2013-02-21 00:01:00,
2013-02-20 19:22:00,17.0,10.0,-100.00,West,274,7.0,17.0,73,0.00,,,0.00,0.000000,,2013-02-21 00:22:00,
2013-02-20 19:32:00,17.0,10.0,-100.00,West,274,7.0,17.0,73,0.00,,,0.00,0.000000,,2013-02-21 00:32:00,
2013-02-20 19:42:00,17.0,10.0,-100.00,West,274,7.0,17.0,73,0.00,,,0.00,0.000000,,2013-02-21 00:42:00,
2013-02-20 19:52:00,17.0,10.0,-100.00,West,274,7.0,17.0,73,0.00,,,0.00,0.000000,,2013-02-21 00:52:00,
2013-02-20 20:01:00,17.0,12.0,-100.00,West,272,9.0,20.0,79,0.00,,,0.00,0.000000,,2013-02-21 01:01:00,
2013-02-20 20:21:00,17.0,12.0,-100.00,West,272,9.0,20.0,79,0.00,,,0.00,0.000000,,2013-02-21 01:21:00,
2013-02-20 20:32:00,17.0,12.0,-100.00,West,272,9.0,20.0,79,0.00,,,0.00,0.000000,,2013-02-21 01:32:00,
2013-02-20 20:42:00,17.0,12.0,-100.00,West,272,9.0,20.0,79,0.00,,,0.00,0.000000,,2013-02-21 01:42:00,
2013-02-20 20:52:00,17.0,12.0,-100.00,West,272,9.0,20.0,79,0.00,,,0.00,0.000000,,2013-02-21 01:52:00,
2013-02-20 21:01:00,17.0,12.0,-100.00,West,271,11.0,23.0,80,0.00,,,0.00,0.000000,,2013-02-21 02:01:00,
2013-02-20 21:22:00,17.0,12.0,-100.00,West,271,11.0,23.0,80,0.00,,,0.00,0.000000,,2013-02-21 02:22:00,
2013-02-20 21:32:00,17.0,12.0,-100.00,West,271,11.0,23.0,80,0.00,,,0.00,0.000000,,2013-02-21 02:32:00,
2013-02-20 21:42:00,17.0,12.0,-100.00,West,271,11.0,23.0,80,0.00,,,0.00,0.000000,,2013-02-21 02:42:00,
2013-02-20 21:52:00,17.0,12.0,-100.00,West,271,11.0,23.0,80,0.00,,,0.00,0.000000,,2013-02-21 02:52:00,
2013-02-20 22:01:00,16.0,11.0,-100.00,West,268,12.0,25.0,81,0.00,,,0.00,0.000000,,2013-02-21 03:01:00,
2013-02-20 22:32:00,16.0,11.0,-100.00,West,268,12.0,25.0,81,0.00,,,0.00,0.000000,,2013-02-21 03:32:00,
2013-02-20 22:42:00,16.0,11.0,-100.00,West,268,12.0,25.0,81,0.00,,,0.00,0.000000,,2013-02-21 03:42:00,
2013-02-20 22:52:00,16.0,11.0,-100.00,West,268,12.0,25.0,81,0.00,,,0.00,0.000000,,2013-02-21 03:52:00,
2013-02-20 23:01:00,14.0,8.0,-100.00,West,269,12.0,26.0,78,0.00,,,0.00,0.000000,,2013-02-21 04:01:00,
2013-02-20 23:32:00,14.0,8.0,-100.00,West,269,12.0,26.0,78,0.00,,,0.00,0.000000,,2013-02-21 04:32:00,
2013-02-20 23:42:00,14.0,8.0,-100.00,West,269,12.0,26.0,78,0.00,,,0.00,0.000000,,2013-02-21 04:42:00,
2013-02-20 23:52:00,14.0,8.0,-100.00,West,269,12.0,26.0,78,0.00,,,0.00,0.000000,,2013-02-21 04:52:00,